Mt New Conquest — V7GG4 — position and weather

sailwx.info

Track history (hours):
 
Tides and Currents Weather Stations Pressure Air Temp Water Temp Dewpoint Dewpoint Depression Visibility Wind Speed Wind Dir Waves Ship Positions

Mt New Conquest

Last reported at 2016-Aug-24 06:20 UTC. Time now 2016-Aug-27 11:39 UTC.
Position N 25°54' W 114°28'.

Length 228 m; draft 8.2 m.

Type: Tanker. MMSI: 538002089.

Date/timePositionNaut miles runAvg speedWind from/ knotsBaromVisibWave heightAir tempDewpointWater temp
2016-Aug-24 06:20N 25°54' W 114°28'2614.7
2016-Aug-24 04:33N 26°14' W 114°47'1615.8
2016-Aug-24 03:33N 26°26' W 114°59'1715.6
2016-Aug-24 02:29N 26°39' W 115°11'1415.2
2016-Aug-24 01:33N 26°49' W 115°21'1515.2
2016-Aug-24 00:34N 27°01' W 115°32'1514.8
2016-Aug-23 23:33N 27°12' W 115°43'1514.5
2016-Aug-23 22:30N 27°24' W 115°54'1414.6
2016-Aug-23 21:34N 27°34' W 116°04'1514.9
2016-Aug-23 20:33N 27°46' W 116°15'1515.2
2016-Aug-23 19:34N 27°57' W 116°27'1815.2
2016-Aug-23 18:22N 28°14' W 116°33'4315.2
2016-Aug-23 15:33N 28°56' W 116°45'1514.9
2016-Aug-23 14:34N 29°10' W 116°50'1514.8
2016-Aug-23 13:32N 29°25' W 116°54'1414.7
2016-Aug-23 12:34N 29°38' W 116°58'1514.8
2016-Aug-23 11:33N 29°53' W 117°03'1414.5
2016-Aug-23 10:33N 30°07' W 117°07'1714.7
2016-Aug-23 09:26N 30°23' W 117°12'1314.4
2016-Aug-23 08:33N 30°35' W 117°16'1514.5
2016-Aug-23 07:34N 30°49' W 117°20'1614.4
2016-Aug-23 06:28N 31°04' W 117°25'1314.3
2016-Aug-23 05:33N 31°17' W 117°28'1514.7
2016-Aug-23 04:34N 31°31' W 117°32'1514.8
2016-Aug-23 03:33N 31°46' W 117°37'1515.7
2016-Aug-23 02:34N 32°00' W 117°42'1616.0
2016-Aug-23 01:33N 32°16' W 117°46'1515.2
2016-Aug-23 00:33N 32°31' W 117°51'1515.0
2016-Aug-22 23:33N 32°45' W 117°55'1615.8
2016-Aug-22 22:34N 33°00' W 118°00'1615.6
2016-Aug-22 21:34N 33°16' W 118°05'1212.3
2016-Aug-22 20:34N 33°27' W 118°10'1110.7
2016-Aug-22 19:34N 33°36' W 118°17'1111.2
2016-Aug-22 18:33N 33°40' W 118°29'8 8.1
2016-Aug-22 17:34N 33°47' W 118°34'8 8.1
2016-Aug-22 16:34N 33°54' W 118°29'0 0.0
2016-Aug-22 15:29N 33°54' W 118°29'0 0.0
2016-Aug-22 14:29N 33°54' W 118°29'0 0.0
2016-Aug-22 13:34N 33°54' W 118°29'0 0.1
2016-Aug-22 12:34N 33°54' W 118°29'0 0.1
2016-Aug-22 11:34N 33°54' W 118°29'2 1.6
2016-Aug-22 10:33N 33°54' W 118°27'0 0.0
2016-Aug-22 07:33N 33°54' W 118°27'0 0.0
2016-Aug-22 04:33N 33°54' W 118°27'0 0.0
2016-Aug-22 03:15N 33°54' W 118°27'0 0.0
2016-Aug-22 02:30N 33°54' W 118°27'0 0.0
2016-Aug-21 18:33N 33°54' W 118°27'3 3.0
2016-Aug-21 17:33N 33°52' W 118°30'1 0.5
2016-Aug-21 16:33N 33°52' W 118°30'6 6.0
2016-Aug-21 15:33N 33°46' W 118°32'8 7.6
2016-Aug-21 14:33N 33°41' W 118°25'9 9.0
2016-Aug-21 13:33N 33°38' W 118°15'7 6.6
2016-Aug-21 12:31N 33°41' W 118°07'0 0.1
2016-Aug-21 11:31N 33°41' W 118°07'0 0.1
2016-Aug-21 10:31N 33°41' W 118°07'0 0.0
2016-Aug-21 09:31N 33°41' W 118°07'0 0.0
2016-Aug-21 08:31N 33°41' W 118°07'0 0.0
2016-Aug-21 07:31N 33°41' W 118°07'0 0.0
2016-Aug-21 06:31N 33°41' W 118°07'0 0.0
2016-Aug-21 05:31N 33°41' W 118°07'0 0.0
2016-Aug-21 04:25N 33°41' W 118°07'0 0.0
2016-Aug-21 03:25N 33°41' W 118°07'0 0.0
2016-Aug-21 02:31N 33°41' W 118°07'0 0.1
2016-Aug-21 01:31N 33°41' W 118°07'0 0.0
2016-Aug-21 00:31N 33°41' W 118°07'0 0.0
2016-Aug-20 23:31N 33°41' W 118°07'0 0.0
2016-Aug-20 22:31N 33°41' W 118°07'0 0.0
2016-Aug-20 21:31N 33°41' W 118°07'0 0.0
2016-Aug-20 20:25N 33°41' W 118°07'0 0.0
2016-Aug-20 19:31N 33°41' W 118°07'0 0.1
2016-Aug-20 18:28N 33°41' W 118°07'0 0.0
2016-Aug-20 17:19N 33°41' W 118°07'0 0.1
2016-Aug-20 16:28N 33°41' W 118°07'0 0.1
2016-Aug-20 15:31N 33°41' W 118°08'0 0.0
2016-Aug-20 14:25N 33°41' W 118°08'0 0.0
2016-Aug-20 13:31N 33°41' W 118°08'0 0.1
2016-Aug-20 12:33N 33°41' W 118°07'0 0.1
2016-Aug-20 11:33N 33°41' W 118°07'0 0.1
2016-Aug-20 10:12N 33°41' W 118°07'0 0.0
2016-Aug-20 09:24N 33°41' W 118°07'0 0.1
2016-Aug-20 08:33N 33°41' W 118°07'0 0.0
2016-Aug-20 06:33N 33°41' W 118°07'0 0.0
2016-Aug-20 04:24N 33°41' W 118°07'0 0.0
2016-Aug-20 03:31N 33°41' W 118°07'0 0.0
2016-Aug-20 02:33N 33°41' W 118°07'0 0.1
2016-Aug-20 01:33N 33°41' W 118°07'0 0.0
2016-Aug-20 00:33N 33°41' W 118°07'0 0.0
2016-Aug-19 23:33N 33°41' W 118°07'0 0.0
2016-Aug-19 22:33N 33°41' W 118°07'0 0.0
2016-Aug-19 21:33N 33°41' W 118°07'0 0.1
2016-Aug-19 20:31N 33°41' W 118°07'0 0.0
2016-Aug-19 19:31N 33°41' W 118°07'0 0.1
2016-Aug-19 18:33N 33°41' W 118°07'0 0.0
2016-Aug-19 17:33N 33°41' W 118°07'0 0.0
2016-Aug-19 16:33N 33°41' W 118°07'0 0.0
2016-Aug-19 15:33N 33°41' W 118°08'0 0.0
2016-Aug-19 14:33N 33°41' W 118°08'0 0.1
2016-Aug-19 13:33N 33°41' W 118°07'0 0.2
2016-Aug-19 12:33N 33°41' W 118°07'0 0.0
2016-Aug-19 09:24N 33°41' W 118°07'0 0.0
2016-Aug-19 08:33N 33°41' W 118°07'0 0.0
2016-Aug-19 07:33N 33°41' W 118°07'0 0.0
2016-Aug-19 06:30N 33°41' W 118°07'0 0.0
2016-Aug-19 05:30N 33°41' W 118°07'0 0.0
2016-Aug-19 04:33N 33°41' W 118°07'0 0.0
2016-Aug-19 03:27N 33°41' W 118°07'0 0.0
2016-Aug-19 02:33N 33°41' W 118°07'0 0.0
2016-Aug-19 01:30N 33°41' W 118°07'0 0.0
2016-Aug-19 00:27N 33°41' W 118°07'0 0.0
2016-Aug-18 23:27N 33°41' W 118°07'0 0.1
2016-Aug-18 22:30N 33°41' W 118°07'0 0.0
2016-Aug-18 21:33N 33°41' W 118°07'0 0.0
2016-Aug-18 20:31N 33°41' W 118°07'0 0.0
2016-Aug-18 19:27N 33°41' W 118°07'0 0.0
2016-Aug-18 18:21N 33°41' W 118°07'0 0.0
2016-Aug-18 17:33N 33°41' W 118°07'0 0.1
2016-Aug-18 16:33N 33°41' W 118°07'0 0.0
2016-Aug-18 15:33N 33°41' W 118°07'0 0.1
2016-Aug-18 14:33N 33°41' W 118°08'0 0.0
2016-Aug-18 13:33N 33°41' W 118°08'0 0.2
2016-Aug-18 12:33N 33°41' W 118°07'0 0.0
2016-Aug-18 11:33N 33°41' W 118°07'0 0.0
2016-Aug-18 10:33N 33°41' W 118°07'0 0.0
2016-Aug-18 09:33N 33°41' W 118°07'0 0.0
2016-Aug-18 08:30N 33°41' W 118°07'0 0.0
2016-Aug-18 07:27N 33°41' W 118°07'0 0.0
2016-Aug-18 06:30N 33°41' W 118°07'0 0.0
2016-Aug-18 05:33N 33°41' W 118°07'0 0.1
2016-Aug-18 04:31N 33°41' W 118°07'0 0.0
2016-Aug-18 03:33N 33°41' W 118°07'0 0.0
2016-Aug-18 02:33N 33°41' W 118°07'0 0.0
2016-Aug-18 01:33N 33°41' W 118°07'0 0.0
2016-Aug-18 00:33N 33°41' W 118°07'0 0.0
2016-Aug-17 23:33N 33°41' W 118°07'0 0.0
2016-Aug-17 22:33N 33°41' W 118°07'0 0.0
2016-Aug-17 21:33N 33°41' W 118°07'0 0.0
2016-Aug-17 20:33N 33°41' W 118°07'0 0.0
2016-Aug-17 19:33N 33°41' W 118°07'0 0.1
2016-Aug-17 18:33N 33°41' W 118°07'0 0.1
2016-Aug-17 17:33N 33°41' W 118°07'0 0.0
2016-Aug-17 16:33N 33°41' W 118°07'0 0.0
2016-Aug-17 15:27N 33°41' W 118°07'0 0.0
2016-Aug-17 14:18N 33°41' W 118°07'0 0.0
2016-Aug-17 13:33N 33°41' W 118°07'0 0.0
2016-Aug-17 12:33N 33°41' W 118°07'0 0.1
2016-Aug-17 11:33N 33°41' W 118°07'0 0.0
2016-Aug-17 10:33N 33°41' W 118°07'0 0.0
2016-Aug-17 09:33N 33°41' W 118°07'0 0.0
2016-Aug-17 08:33N 33°41' W 118°07'0 0.0
2016-Aug-17 07:33N 33°41' W 118°07'0 0.0
2016-Aug-17 06:33N 33°41' W 118°07'0 0.0
2016-Aug-17 05:33N 33°41' W 118°07'0 0.0
2016-Aug-17 04:30N 33°41' W 118°07'0 0.1
2016-Aug-17 03:33N 33°41' W 118°07'0 0.0
2016-Aug-17 02:33N 33°41' W 118°07'0 0.0
2016-Aug-17 01:33N 33°41' W 118°07'0 0.0
2016-Aug-17 00:30N 33°41' W 118°07'0 0.1
2016-Aug-16 23:33N 33°41' W 118°07'0 0.0
2016-Aug-16 22:33N 33°41' W 118°07'0 0.0
2016-Aug-16 21:33N 33°41' W 118°07'0 0.0
2016-Aug-16 20:33N 33°41' W 118°07'0 0.0
2016-Aug-16 19:33N 33°41' W 118°07'0 0.1
2016-Aug-16 18:33N 33°41' W 118°07'0 0.0
2016-Aug-16 17:30N 33°41' W 118°07'0 0.0
2016-Aug-16 16:33N 33°41' W 118°07'0 0.0
2016-Aug-16 15:30N 33°41' W 118°07'0 0.0
2016-Aug-16 14:33N 33°41' W 118°07'0 0.0
2016-Aug-16 13:33N 33°41' W 118°07'0 0.0
2016-Aug-16 12:33N 33°41' W 118°07'0 0.0
2016-Aug-16 11:33N 33°41' W 118°07'0 0.0
2016-Aug-16 10:21N 33°41' W 118°07'0 0.0
2016-Aug-16 09:33N 33°41' W 118°07'0 0.0
2016-Aug-16 08:33N 33°41' W 118°07'0 0.0
2016-Aug-16 07:33N 33°41' W 118°07'0 0.0
2016-Aug-16 04:33N 33°41' W 118°07'0 0.1
2016-Aug-16 03:33N 33°41' W 118°07'0 0.0
2016-Aug-16 02:30N 33°41' W 118°07'0 0.0
2016-Aug-16 01:33N 33°41' W 118°07'0 0.0
2016-Aug-16 00:33N 33°41' W 118°07'0 0.0
2016-Aug-15 23:33N 33°41' W 118°07'0 0.0
2016-Aug-15 22:33N 33°41' W 118°07'0 0.0
2016-Aug-15 21:33N 33°41' W 118°07'0 0.0
2016-Aug-15 20:33N 33°41' W 118°07'1 1.2
2016-Aug-15 19:33N 33°40' W 118°07'7 6.9
2016-Aug-15 18:33N 33°37' W 118°15'1110.6
2016-Aug-15 17:34N 33°39' W 118°27'10 9.9
2016-Aug-15 16:33N 33°46' W 118°36'1111.0
2016-Aug-15 15:34N 33°54' W 118°28'1 0.8
2016-Aug-15 14:34N 33°54' W 118°27'0 0.0
2016-Aug-15 08:22N 33°54' W 118°27'0 0.0
2016-Aug-15 07:31N 33°54' W 118°27'1 0.0
2016-Aug-14 15:30N 33°54' W 118°27'3 2.5
2016-Aug-14 14:26N 33°52' W 118°30'2 2.4
2016-Aug-14 13:33N 33°50' W 118°31'7 7.1
2016-Aug-14 12:33N 33°43' W 118°30'1110.8
2016-Aug-14 11:34N 33°38' W 118°18'9 8.9
2016-Aug-14 10:33N 33°34' W 118°09'10 9.5
2016-Aug-14 09:33N 33°25' W 118°05'10 9.6
2016-Aug-14 08:33N 33°16' W 118°02'1110.7
2016-Aug-14 07:33N 33°05' W 117°59'1111.0
2016-Aug-14 06:33N 32°55' W 117°55'  
Track history (hours):
 
Tides and Currents Weather Stations Pressure Air Temp Water Temp Dewpoint Dewpoint Depression Visibility Wind Speed Wind Dir Waves Ship Positions

Mt New Conquest

Last reported at 2016-Aug-24 06:20 UTC. Time now 2016-Aug-27 11:39 UTC.
Position N 25°54' W 114°28'.

Length 228 m; draft 8.2 m.

Type: Tanker. MMSI: 538002089.

Date/timePositionNaut miles runAvg speedWind from/ knotsBaromVisibWave heightAir tempDewpointWater temp
2016-Aug-24 06:20N 25°54' W 114°28'2614.7
2016-Aug-24 04:33N 26°14' W 114°47'1615.8
2016-Aug-24 03:33N 26°26' W 114°59'1715.6
2016-Aug-24 02:29N 26°39' W 115°11'1415.2
2016-Aug-24 01:33N 26°49' W 115°21'1515.2
2016-Aug-24 00:34N 27°01' W 115°32'1514.8
2016-Aug-23 23:33N 27°12' W 115°43'1514.5
2016-Aug-23 22:30N 27°24' W 115°54'1414.6
2016-Aug-23 21:34N 27°34' W 116°04'1514.9
2016-Aug-23 20:33N 27°46' W 116°15'1515.2
2016-Aug-23 19:34N 27°57' W 116°27'1815.2
2016-Aug-23 18:22N 28°14' W 116°33'4315.2
2016-Aug-23 15:33N 28°56' W 116°45'1514.9
2016-Aug-23 14:34N 29°10' W 116°50'1514.8
2016-Aug-23 13:32N 29°25' W 116°54'1414.7
2016-Aug-23 12:34N 29°38' W 116°58'1514.8
2016-Aug-23 11:33N 29°53' W 117°03'1414.5
2016-Aug-23 10:33N 30°07' W 117°07'1714.7
2016-Aug-23 09:26N 30°23' W 117°12'1314.4
2016-Aug-23 08:33N 30°35' W 117°16'1514.5
2016-Aug-23 07:34N 30°49' W 117°20'1614.4
2016-Aug-23 06:28N 31°04' W 117°25'1314.3
2016-Aug-23 05:33N 31°17' W 117°28'1514.7
2016-Aug-23 04:34N 31°31' W 117°32'1514.8
2016-Aug-23 03:33N 31°46' W 117°37'1515.7
2016-Aug-23 02:34N 32°00' W 117°42'1616.0
2016-Aug-23 01:33N 32°16' W 117°46'1515.2
2016-Aug-23 00:33N 32°31' W 117°51'1515.0
2016-Aug-22 23:33N 32°45' W 117°55'1615.8
2016-Aug-22 22:34N 33°00' W 118°00'1615.6
2016-Aug-22 21:34N 33°16' W 118°05'1212.3
2016-Aug-22 20:34N 33°27' W 118°10'1110.7
2016-Aug-22 19:34N 33°36' W 118°17'1111.2
2016-Aug-22 18:33N 33°40' W 118°29'8 8.1
2016-Aug-22 17:34N 33°47' W 118°34'8 8.1
2016-Aug-22 16:34N 33°54' W 118°29'0 0.0
2016-Aug-22 15:29N 33°54' W 118°29'0 0.0
2016-Aug-22 14:29N 33°54' W 118°29'0 0.0
2016-Aug-22 13:34N 33°54' W 118°29'0 0.1
2016-Aug-22 12:34N 33°54' W 118°29'0 0.1
2016-Aug-22 11:34N 33°54' W 118°29'2 1.6
2016-Aug-22 10:33N 33°54' W 118°27'0 0.0
2016-Aug-22 07:33N 33°54' W 118°27'0 0.0
2016-Aug-22 04:33N 33°54' W 118°27'0 0.0
2016-Aug-22 03:15N 33°54' W 118°27'0 0.0
2016-Aug-22 02:30N 33°54' W 118°27'0 0.0
2016-Aug-21 18:33N 33°54' W 118°27'3 3.0
2016-Aug-21 17:33N 33°52' W 118°30'1 0.5
2016-Aug-21 16:33N 33°52' W 118°30'6 6.0
2016-Aug-21 15:33N 33°46' W 118°32'8 7.6
2016-Aug-21 14:33N 33°41' W 118°25'9 9.0
2016-Aug-21 13:33N 33°38' W 118°15'7 6.6
2016-Aug-21 12:31N 33°41' W 118°07'0 0.1
2016-Aug-21 11:31N 33°41' W 118°07'0 0.1
2016-Aug-21 10:31N 33°41' W 118°07'0 0.0
2016-Aug-21 09:31N 33°41' W 118°07'0 0.0
2016-Aug-21 08:31N 33°41' W 118°07'0 0.0
2016-Aug-21 07:31N 33°41' W 118°07'0 0.0
2016-Aug-21 06:31N 33°41' W 118°07'0 0.0
2016-Aug-21 05:31N 33°41' W 118°07'0 0.0
2016-Aug-21 04:25N 33°41' W 118°07'0 0.0
2016-Aug-21 03:25N 33°41' W 118°07'0 0.0
2016-Aug-21 02:31N 33°41' W 118°07'0 0.1
2016-Aug-21 01:31N 33°41' W 118°07'0 0.0
2016-Aug-21 00:31N 33°41' W 118°07'0 0.0
2016-Aug-20 23:31N 33°41' W 118°07'0 0.0
2016-Aug-20 22:31N 33°41' W 118°07'0 0.0
2016-Aug-20 21:31N 33°41' W 118°07'0 0.0
2016-Aug-20 20:25N 33°41' W 118°07'0 0.0
2016-Aug-20 19:31N 33°41' W 118°07'0 0.1
2016-Aug-20 18:28N 33°41' W 118°07'0 0.0
2016-Aug-20 17:19N 33°41' W 118°07'0 0.1
2016-Aug-20 16:28N 33°41' W 118°07'0 0.1
2016-Aug-20 15:31N 33°41' W 118°08'0 0.0
2016-Aug-20 14:25N 33°41' W 118°08'0 0.0
2016-Aug-20 13:31N 33°41' W 118°08'0 0.1
2016-Aug-20 12:33N 33°41' W 118°07'0 0.1
2016-Aug-20 11:33N 33°41' W 118°07'0 0.1
2016-Aug-20 10:12N 33°41' W 118°07'0 0.0
2016-Aug-20 09:24N 33°41' W 118°07'0 0.1
2016-Aug-20 08:33N 33°41' W 118°07'0 0.0
2016-Aug-20 06:33N 33°41' W 118°07'0 0.0
2016-Aug-20 04:24N 33°41' W 118°07'0 0.0
2016-Aug-20 03:31N 33°41' W 118°07'0 0.0
2016-Aug-20 02:33N 33°41' W 118°07'0 0.1
2016-Aug-20 01:33N 33°41' W 118°07'0 0.0
2016-Aug-20 00:33N 33°41' W 118°07'0 0.0
2016-Aug-19 23:33N 33°41' W 118°07'0 0.0
2016-Aug-19 22:33N 33°41' W 118°07'0 0.0
2016-Aug-19 21:33N 33°41' W 118°07'0 0.1
2016-Aug-19 20:31N 33°41' W 118°07'0 0.0
2016-Aug-19 19:31N 33°41' W 118°07'0 0.1
2016-Aug-19 18:33N 33°41' W 118°07'0 0.0
2016-Aug-19 17:33N 33°41' W 118°07'0 0.0
2016-Aug-19 16:33N 33°41' W 118°07'0 0.0
2016-Aug-19 15:33N 33°41' W 118°08'0 0.0
2016-Aug-19 14:33N 33°41' W 118°08'0 0.1
2016-Aug-19 13:33N 33°41' W 118°07'0 0.2
2016-Aug-19 12:33N 33°41' W 118°07'0 0.0
2016-Aug-19 09:24N 33°41' W 118°07'0 0.0
2016-Aug-19 08:33N 33°41' W 118°07'0 0.0
2016-Aug-19 07:33N 33°41' W 118°07'0 0.0
2016-Aug-19 06:30N 33°41' W 118°07'0 0.0
2016-Aug-19 05:30N 33°41' W 118°07'0 0.0
2016-Aug-19 04:33N 33°41' W 118°07'0 0.0
2016-Aug-19 03:27N 33°41' W 118°07'0 0.0
2016-Aug-19 02:33N 33°41' W 118°07'0 0.0
2016-Aug-19 01:30N 33°41' W 118°07'0 0.0
2016-Aug-19 00:27N 33°41' W 118°07'0 0.0
2016-Aug-18 23:27N 33°41' W 118°07'0 0.1
2016-Aug-18 22:30N 33°41' W 118°07'0 0.0
2016-Aug-18 21:33N 33°41' W 118°07'0 0.0
2016-Aug-18 20:31N 33°41' W 118°07'0 0.0
2016-Aug-18 19:27N 33°41' W 118°07'0 0.0
2016-Aug-18 18:21N 33°41' W 118°07'0 0.0
2016-Aug-18 17:33N 33°41' W 118°07'0 0.1
2016-Aug-18 16:33N 33°41' W 118°07'0 0.0
2016-Aug-18 15:33N 33°41' W 118°07'0 0.1
2016-Aug-18 14:33N 33°41' W 118°08'0 0.0
2016-Aug-18 13:33N 33°41' W 118°08'0 0.2
2016-Aug-18 12:33N 33°41' W 118°07'0 0.0
2016-Aug-18 11:33N 33°41' W 118°07'0 0.0
2016-Aug-18 10:33N 33°41' W 118°07'0 0.0
2016-Aug-18 09:33N 33°41' W 118°07'0 0.0
2016-Aug-18 08:30N 33°41' W 118°07'0 0.0
2016-Aug-18 07:27N 33°41' W 118°07'0 0.0
2016-Aug-18 06:30N 33°41' W 118°07'0 0.0
2016-Aug-18 05:33N 33°41' W 118°07'0 0.1
2016-Aug-18 04:31N 33°41' W 118°07'0 0.0
2016-Aug-18 03:33N 33°41' W 118°07'0 0.0
2016-Aug-18 02:33N 33°41' W 118°07'0 0.0
2016-Aug-18 01:33N 33°41' W 118°07'0 0.0
2016-Aug-18 00:33N 33°41' W 118°07'0 0.0
2016-Aug-17 23:33N 33°41' W 118°07'0 0.0
2016-Aug-17 22:33N 33°41' W 118°07'0 0.0
2016-Aug-17 21:33N 33°41' W 118°07'0 0.0
2016-Aug-17 20:33N 33°41' W 118°07'0 0.0
2016-Aug-17 19:33N 33°41' W 118°07'0 0.1
2016-Aug-17 18:33N 33°41' W 118°07'0 0.1
2016-Aug-17 17:33N 33°41' W 118°07'0 0.0
2016-Aug-17 16:33N 33°41' W 118°07'0 0.0
2016-Aug-17 15:27N 33°41' W 118°07'0 0.0
2016-Aug-17 14:18N 33°41' W 118°07'0 0.0
2016-Aug-17 13:33N 33°41' W 118°07'0 0.0
2016-Aug-17 12:33N 33°41' W 118°07'0 0.1
2016-Aug-17 11:33N 33°41' W 118°07'0 0.0
2016-Aug-17 10:33N 33°41' W 118°07'0 0.0
2016-Aug-17 09:33N 33°41' W 118°07'0 0.0
2016-Aug-17 08:33N 33°41' W 118°07'0 0.0
2016-Aug-17 07:33N 33°41' W 118°07'0 0.0
2016-Aug-17 06:33N 33°41' W 118°07'0 0.0
2016-Aug-17 05:33N 33°41' W 118°07'0 0.0
2016-Aug-17 04:30N 33°41' W 118°07'0 0.1
2016-Aug-17 03:33N 33°41' W 118°07'0 0.0
2016-Aug-17 02:33N 33°41' W 118°07'0 0.0
2016-Aug-17 01:33N 33°41' W 118°07'0 0.0
2016-Aug-17 00:30N 33°41' W 118°07'0 0.1
2016-Aug-16 23:33N 33°41' W 118°07'0 0.0
2016-Aug-16 22:33N 33°41' W 118°07'0 0.0
2016-Aug-16 21:33N 33°41' W 118°07'0 0.0
2016-Aug-16 20:33N 33°41' W 118°07'0 0.0
2016-Aug-16 19:33N 33°41' W 118°07'0 0.1
2016-Aug-16 18:33N 33°41' W 118°07'0 0.0
2016-Aug-16 17:30N 33°41' W 118°07'0 0.0
2016-Aug-16 16:33N 33°41' W 118°07'0 0.0
2016-Aug-16 15:30N 33°41' W 118°07'0 0.0
2016-Aug-16 14:33N 33°41' W 118°07'0 0.0
2016-Aug-16 13:33N 33°41' W 118°07'0 0.0
2016-Aug-16 12:33N 33°41' W 118°07'0 0.0
2016-Aug-16 11:33N 33°41' W 118°07'0 0.0
2016-Aug-16 10:21N 33°41' W 118°07'0 0.0
2016-Aug-16 09:33N 33°41' W 118°07'0 0.0
2016-Aug-16 08:33N 33°41' W 118°07'0 0.0
2016-Aug-16 07:33N 33°41' W 118°07'0 0.0
2016-Aug-16 04:33N 33°41' W 118°07'0 0.1
2016-Aug-16 03:33N 33°41' W 118°07'0 0.0
2016-Aug-16 02:30N 33°41' W 118°07'0 0.0
2016-Aug-16 01:33N 33°41' W 118°07'0 0.0
2016-Aug-16 00:33N 33°41' W 118°07'0 0.0
2016-Aug-15 23:33N 33°41' W 118°07'0 0.0
2016-Aug-15 22:33N 33°41' W 118°07'0 0.0
2016-Aug-15 21:33N 33°41' W 118°07'0 0.0
2016-Aug-15 20:33N 33°41' W 118°07'1 1.2
2016-Aug-15 19:33N 33°40' W 118°07'7 6.9
2016-Aug-15 18:33N 33°37' W 118°15'1110.6
2016-Aug-15 17:34N 33°39' W 118°27'10 9.9
2016-Aug-15 16:33N 33°46' W 118°36'1111.0
2016-Aug-15 15:34N 33°54' W 118°28'1 0.8
2016-Aug-15 14:34N 33°54' W 118°27'0 0.0
2016-Aug-15 08:22N 33°54' W 118°27'0 0.0
2016-Aug-15 07:31N 33°54' W 118°27'1 0.0
2016-Aug-14 15:30N 33°54' W 118°27'3 2.5
2016-Aug-14 14:26N 33°52' W 118°30'2 2.4
2016-Aug-14 13:33N 33°50' W 118°31'7 7.1
2016-Aug-14 12:33N 33°43' W 118°30'1110.8
2016-Aug-14 11:34N 33°38' W 118°18'9 8.9
2016-Aug-14 10:33N 33°34' W 118°09'10 9.5
2016-Aug-14 09:33N 33°25' W 118°05'10 9.6
2016-Aug-14 08:33N 33°16' W 118°02'1110.7
2016-Aug-14 07:33N 33°05' W 117°59'1111.0
2016-Aug-14 06:33N 32°55' W 117°55'  

Dump ship's entire track history